sensor_id;sensor_type;location;lat;lon;timestamp;P1;durP1;ratioP1;P2;durP2;ratioP2
76540;SDS011;65385;55.772;37.658;2023-12-20T00:00:34;2.40;;;2.10;;
76540;SDS011;65385;55.772;37.658;2023-12-20T00:01:34;1.70;;;1.60;;
76540;SDS011;65385;55.772;37.658;2023-12-20T00:02:35;2.15;;;1.88;;
76540;SDS011;65385;55.772;37.658;2023-12-20T00:03:36;2.20;;;1.85;;
76540;SDS011;65385;55.772;37.658;2023-12-20T00:04:36;2.30;;;2.08;;
76540;SDS011;65385;55.772;37.658;2023-12-20T00:05:37;2.10;;;1.88;;
76540;SDS011;65385;55.772;37.658;2023-12-20T00:06:41;4.18;;;2.38;;
76540;SDS011;65385;55.772;37.658;2023-12-20T00:07:41;2.20;;;2.00;;
76540;SDS011;65385;55.772;37.658;2023-12-20T00:08:42;2.97;;;2.45;;
76540;SDS011;65385;55.772;37.658;2023-12-20T00:09:44;3.67;;;2.42;;
76540;SDS011;65385;55.772;37.658;2023-12-20T00:10:44;2.50;;;2.30;;
76540;SDS011;65385;55.772;37.658;2023-12-20T00:11:45;3.75;;;2.40;;
76540;SDS011;65385;55.772;37.658;2023-12-20T00:12:46;2.13;;;2.03;;
76540;SDS011;65385;55.772;37.658;2023-12-20T00:13:47;2.53;;;2.20;;
76540;SDS011;65385;55.772;37.658;2023-12-20T00:14:47;3.13;;;2.65;;
76540;SDS011;65385;55.772;37.658;2023-12-20T00:15:48;2.60;;;2.40;;
76540;SDS011;65385;55.772;37.658;2023-12-20T00:16:49;4.53;;;2.63;;
76540;SDS011;65385;55.772;37.658;2023-12-20T00:17:49;3.10;;;2.17;;
76540;SDS011;65385;55.772;37.658;2023-12-20T00:18:50;2.10;;;1.90;;
76540;SDS011;65385;55.772;37.658;2023-12-20T00:19:50;2.65;;;2.30;;
76540;SDS011;65385;55.772;37.658;2023-12-20T00:20:51;2.45;;;2.10;;
76540;SDS011;65385;55.772;37.658;2023-12-20T00:21:52;4.45;;;2.25;;
76540;SDS011;65385;55.772;37.658;2023-12-20T00:22:54;2.88;;;2.17;;
76540;SDS011;65385;55.772;37.658;2023-12-20T00:23:56;2.60;;;2.40;;
76540;SDS011;65385;55.772;37.658;2023-12-20T00:24:56;5.53;;;2.35;;
76540;SDS011;65385;55.772;37.658;2023-12-20T00:25:57;2.38;;;2.17;;
76540;SDS011;65385;55.772;37.658;2023-12-20T00:26:58;5.05;;;2.15;;
76540;SDS011;65385;55.772;37.658;2023-12-20T00:27:58;2.10;;;2.00;;
76540;SDS011;65385;55.772;37.658;2023-12-20T00:28:59;1.70;;;1.60;;
76540;SDS011;65385;55.772;37.658;2023-12-20T00:30:00;2.30;;;1.90;;
76540;SDS011;65385;55.772;37.658;2023-12-20T00:31:00;1.95;;;1.70;;
76540;SDS011;65385;55.772;37.658;2023-12-20T00:32:01;2.05;;;1.85;;
76540;SDS011;65385;55.772;37.658;2023-12-20T00:33:02;2.97;;;1.90;;
76540;SDS011;65385;55.772;37.658;2023-12-20T00:34:02;2.15;;;1.83;;
76540;SDS011;65385;55.772;37.658;2023-12-20T00:35:03;1.77;;;1.65;;
76540;SDS011;65385;55.772;37.658;2023-12-20T00:36:04;2.00;;;1.90;;
76540;SDS011;65385;55.772;37.658;2023-12-20T00:37:05;4.75;;;2.00;;
76540;SDS011;65385;55.772;37.658;2023-12-20T00:38:06;1.40;;;1.30;;
76540;SDS011;65385;55.772;37.658;2023-12-20T00:39:09;2.60;;;2.15;;
76540;SDS011;65385;55.772;37.658;2023-12-20T00:40:09;5.63;;;2.17;;
76540;SDS011;65385;55.772;37.658;2023-12-20T00:41:10;2.03;;;1.67;;
76540;SDS011;65385;55.772;37.658;2023-12-20T00:42:11;2.97;;;1.63;;
76540;SDS011;65385;55.772;37.658;2023-12-20T00:43:11;2.10;;;1.73;;
76540;SDS011;65385;55.772;37.658;2023-12-20T00:44:12;3.72;;;2.22;;
76540;SDS011;65385;55.772;37.658;2023-12-20T00:45:13;3.97;;;2.20;;
76540;SDS011;65385;55.772;37.658;2023-12-20T00:46:14;2.38;;;2.17;;
76540;SDS011;65385;55.772;37.658;2023-12-20T00:47:15;2.70;;;1.92;;
76540;SDS011;65385;55.772;37.658;2023-12-20T00:48:15;2.88;;;2.42;;
76540;SDS011;65385;55.772;37.658;2023-12-20T00:49:16;3.97;;;2.60;;
76540;SDS011;65385;55.772;37.658;2023-12-20T00:50:17;3.90;;;2.65;;
76540;SDS011;65385;55.772;37.658;2023-12-20T00:51:17;4.90;;;3.22;;
76540;SDS011;65385;55.772;37.658;2023-12-20T00:52:18;3.15;;;2.53;;
76540;SDS011;65385;55.772;37.658;2023-12-20T00:53:19;2.70;;;2.50;;
76540;SDS011;65385;55.772;37.658;2023-12-20T00:54:19;3.05;;;2.30;;
76540;SDS011;65385;55.772;37.658;2023-12-20T00:55:20;2.15;;;1.90;;
76540;SDS011;65385;55.772;37.658;2023-12-20T00:56:21;3.53;;;2.53;;
76540;SDS011;65385;55.772;37.658;2023-12-20T00:57:21;3.28;;;2.50;;
76540;SDS011;65385;55.772;37.658;2023-12-20T00:58:22;3.00;;;2.67;;
76540;SDS011;65385;55.772;37.658;2023-12-20T00:59:23;3.47;;;2.63;;
76540;SDS011;65385;55.772;37.658;2023-12-20T01:00:23;3.63;;;2.35;;
76540;SDS011;65385;55.772;37.658;2023-12-20T01:01:24;2.53;;;2.33;;
76540;SDS011;65385;55.772;37.658;2023-12-20T01:02:25;2.72;;;2.45;;
76540;SDS011;65385;55.772;37.658;2023-12-20T01:03:26;3.15;;;2.47;;
76540;SDS011;65385;55.772;37.658;2023-12-20T01:04:26;2.38;;;2.20;;
76540;SDS011;65385;55.772;37.658;2023-12-20T01:05:27;2.97;;;2.13;;
76540;SDS011;65385;55.772;37.658;2023-12-20T01:06:27;2.50;;;2.08;;
76540;SDS011;65385;55.772;37.658;2023-12-20T01:07:28;3.30;;;2.47;;
76540;SDS011;65385;55.772;37.658;2023-12-20T01:08:29;2.67;;;2.33;;
76540;SDS011;65385;55.772;37.658;2023-12-20T01:09:29;3.63;;;2.53;;
76540;SDS011;65385;55.772;37.658;2023-12-20T01:10:30;2.03;;;1.92;;
76540;SDS011;65385;55.772;37.658;2023-12-20T01:11:30;4.18;;;2.90;;
76540;SDS011;65385;55.772;37.658;2023-12-20T01:12:31;3.92;;;2.63;;
76540;SDS011;65385;55.772;37.658;2023-12-20T01:13:32;3.13;;;2.13;;
76540;SDS011;65385;55.772;37.658;2023-12-20T01:14:32;2.95;;;2.38;;
76540;SDS011;65385;55.772;37.658;2023-12-20T01:15:33;3.20;;;2.80;;
76540;SDS011;65385;55.772;37.658;2023-12-20T01:16:33;4.63;;;2.35;;
76540;SDS011;65385;55.772;37.658;2023-12-20T01:17:34;3.53;;;2.28;;
76540;SDS011;65385;55.772;37.658;2023-12-20T01:18:35;2.92;;;2.53;;
76540;SDS011;65385;55.772;37.658;2023-12-20T01:19:35;5.32;;;2.72;;
76540;SDS011;65385;55.772;37.658;2023-12-20T01:20:36;3.50;;;2.67;;
76540;SDS011;65385;55.772;37.658;2023-12-20T01:21:36;3.33;;;2.60;;
76540;SDS011;65385;55.772;37.658;2023-12-20T01:22:37;4.35;;;2.55;;
76540;SDS011;65385;55.772;37.658;2023-12-20T01:23:38;3.97;;;2.45;;
76540;SDS011;65385;55.772;37.658;2023-12-20T01:24:38;2.90;;;2.22;;
76540;SDS011;65385;55.772;37.658;2023-12-20T01:25:39;3.45;;;2.58;;
76540;SDS011;65385;55.772;37.658;2023-12-20T01:26:39;4.20;;;2.80;;
76540;SDS011;65385;55.772;37.658;2023-12-20T01:27:40;4.78;;;2.67;;
76540;SDS011;65385;55.772;37.658;2023-12-20T01:28:41;2.72;;;2.42;;
76540;SDS011;65385;55.772;37.658;2023-12-20T01:29:42;2.40;;;2.10;;
76540;SDS011;65385;55.772;37.658;2023-12-20T01:30:42;5.05;;;2.80;;
76540;SDS011;65385;55.772;37.658;2023-12-20T01:31:43;5.97;;;3.00;;
76540;SDS011;65385;55.772;37.658;2023-12-20T01:32:43;3.67;;;2.45;;
76540;SDS011;65385;55.772;37.658;2023-12-20T01:33:44;4.50;;;3.03;;
76540;SDS011;65385;55.772;37.658;2023-12-20T01:34:45;4.68;;;2.92;;
76540;SDS011;65385;55.772;37.658;2023-12-20T01:35:45;2.25;;;2.05;;
76540;SDS011;65385;55.772;37.658;2023-12-20T01:36:46;5.18;;;3.50;;
76540;SDS011;65385;55.772;37.658;2023-12-20T01:37:46;6.28;;;2.83;;
76540;SDS011;65385;55.772;37.658;2023-12-20T01:38:47;4.78;;;2.67;;
76540;SDS011;65385;55.772;37.658;2023-12-20T01:39:48;2.90;;;2.40;;
76540;SDS011;65385;55.772;37.658;2023-12-20T01:40:48;4.78;;;2.70;;
76540;SDS011;65385;55.772;37.658;2023-12-20T01:41:49;4.28;;;2.80;;
76540;SDS011;65385;55.772;37.658;2023-12-20T01:44:19;2.60;;;2.13;;
76540;SDS011;65385;55.772;37.658;2023-12-20T01:45:20;3.17;;;2.65;;
76540;SDS011;65385;55.772;37.658;2023-12-20T01:46:20;4.60;;;3.22;;
76540;SDS011;65385;55.772;37.658;2023-12-20T01:47:21;3.95;;;2.55;;
76540;SDS011;65385;55.772;37.658;2023-12-20T01:48:22;3.38;;;2.65;;
76540;SDS011;65385;55.772;37.658;2023-12-20T01:49:24;4.35;;;2.92;;
76540;SDS011;65385;55.772;37.658;2023-12-20T01:50:25;3.97;;;2.45;;
76540;SDS011;65385;55.772;37.658;2023-12-20T01:51:27;4.00;;;2.65;;
76540;SDS011;65385;55.772;37.658;2023-12-20T01:52:28;3.63;;;2.67;;
76540;SDS011;65385;55.772;37.658;2023-12-20T01:53:29;4.30;;;2.95;;
76540;SDS011;65385;55.772;37.658;2023-12-20T01:54:30;4.88;;;2.50;;
76540;SDS011;65385;55.772;37.658;2023-12-20T01:55:31;2.92;;;2.40;;
76540;SDS011;65385;55.772;37.658;2023-12-20T01:56:35;2.92;;;2.58;;
76540;SDS011;65385;55.772;37.658;2023-12-20T01:57:36;5.05;;;2.38;;
76540;SDS011;65385;55.772;37.658;2023-12-20T01:58:41;3.13;;;2.70;;
76540;SDS011;65385;55.772;37.658;2023-12-20T01:59:46;4.45;;;2.17;;
76540;SDS011;65385;55.772;37.658;2023-12-20T02:00:47;2.03;;;1.92;;
76540;SDS011;65385;55.772;37.658;2023-12-20T02:01:48;2.60;;;2.40;;
76540;SDS011;65385;55.772;37.658;2023-12-20T02:02:50;3.10;;;2.22;;
76540;SDS011;65385;55.772;37.658;2023-12-20T02:03:53;3.08;;;1.95;;
76540;SDS011;65385;55.772;37.658;2023-12-20T02:04:53;2.75;;;2.20;;
76540;SDS011;65385;55.772;37.658;2023-12-20T02:05:54;5.00;;;2.20;;
76540;SDS011;65385;55.772;37.658;2023-12-20T02:06:55;2.55;;;2.35;;
76540;SDS011;65385;55.772;37.658;2023-12-20T02:07:56;3.90;;;2.65;;
76540;SDS011;65385;55.772;37.658;2023-12-20T02:08:57;2.38;;;2.17;;
76540;SDS011;65385;55.772;37.658;2023-12-20T02:09:58;2.47;;;2.28;;
76540;SDS011;65385;55.772;37.658;2023-12-20T02:10:59;3.38;;;1.80;;
76540;SDS011;65385;55.772;37.658;2023-12-20T02:12:00;3.85;;;2.05;;
76540;SDS011;65385;55.772;37.658;2023-12-20T02:13:01;5.13;;;2.30;;
76540;SDS011;65385;55.772;37.658;2023-12-20T02:14:01;4.70;;;2.67;;
76540;SDS011;65385;55.772;37.658;2023-12-20T02:15:03;3.33;;;2.05;;
76540;SDS011;65385;55.772;37.658;2023-12-20T02:16:05;2.15;;;1.95;;
76540;SDS011;65385;55.772;37.658;2023-12-20T02:17:08;2.50;;;2.15;;
76540;SDS011;65385;55.772;37.658;2023-12-20T02:18:08;2.00;;;1.85;;
76540;SDS011;65385;55.772;37.658;2023-12-20T02:19:10;3.28;;;2.15;;
76540;SDS011;65385;55.772;37.658;2023-12-20T02:20:14;3.60;;;1.90;;
76540;SDS011;65385;55.772;37.658;2023-12-20T02:21:15;2.15;;;2.05;;
76540;SDS011;65385;55.772;37.658;2023-12-20T02:22:16;4.13;;;2.17;;
76540;SDS011;65385;55.772;37.658;2023-12-20T02:23:16;2.13;;;1.83;;
76540;SDS011;65385;55.772;37.658;2023-12-20T02:24:17;4.35;;;1.90;;
76540;SDS011;65385;55.772;37.658;2023-12-20T02:25:17;2.30;;;1.60;;
76540;SDS011;65385;55.772;37.658;2023-12-20T02:26:19;3.38;;;2.20;;
76540;SDS011;65385;55.772;37.658;2023-12-20T02:27:19;5.57;;;2.42;;
76540;SDS011;65385;55.772;37.658;2023-12-20T02:28:20;4.15;;;2.13;;
76540;SDS011;65385;55.772;37.658;2023-12-20T02:29:22;4.30;;;1.83;;
76540;SDS011;65385;55.772;37.658;2023-12-20T02:30:23;2.65;;;2.33;;
76540;SDS011;65385;55.772;37.658;2023-12-20T02:31:24;2.80;;;1.80;;
76540;SDS011;65385;55.772;37.658;2023-12-20T02:32:24;1.50;;;1.38;;
76540;SDS011;65385;55.772;37.658;2023-12-20T02:33:28;4.10;;;1.73;;
76540;SDS011;65385;55.772;37.658;2023-12-20T02:34:28;2.15;;;1.95;;
76540;SDS011;65385;55.772;37.658;2023-12-20T02:35:29;2.30;;;2.20;;
76540;SDS011;65385;55.772;37.658;2023-12-20T02:36:30;1.98;;;1.70;;
76540;SDS011;65385;55.772;37.658;2023-12-20T02:37:31;2.42;;;1.65;;
76540;SDS011;65385;55.772;37.658;2023-12-20T02:38:33;2.88;;;1.75;;
76540;SDS011;65385;55.772;37.658;2023-12-20T02:39:34;2.38;;;1.70;;
76540;SDS011;65385;55.772;37.658;2023-12-20T02:40:35;3.00;;;1.60;;
76540;SDS011;65385;55.772;37.658;2023-12-20T02:41:35;2.70;;;1.77;;
76540;SDS011;65385;55.772;37.658;2023-12-20T02:42:36;2.15;;;1.80;;
76540;SDS011;65385;55.772;37.658;2023-12-20T02:43:36;2.10;;;1.88;;
76540;SDS011;65385;55.772;37.658;2023-12-20T02:44:37;3.55;;;1.85;;
76540;SDS011;65385;55.772;37.658;2023-12-20T02:45:38;2.78;;;2.00;;
76540;SDS011;65385;55.772;37.658;2023-12-20T02:46:38;5.15;;;2.03;;
76540;SDS011;65385;55.772;37.658;2023-12-20T02:47:39;1.80;;;1.70;;
76540;SDS011;65385;55.772;37.658;2023-12-20T02:48:40;2.13;;;1.95;;
76540;SDS011;65385;55.772;37.658;2023-12-20T02:49:40;6.32;;;2.28;;
76540;SDS011;65385;55.772;37.658;2023-12-20T02:50:41;2.00;;;1.90;;
76540;SDS011;65385;55.772;37.658;2023-12-20T02:51:41;3.35;;;1.90;;
76540;SDS011;65385;55.772;37.658;2023-12-20T02:52:44;2.50;;;2.30;;
76540;SDS011;65385;55.772;37.658;2023-12-20T02:53:45;2.60;;;2.00;;
76540;SDS011;65385;55.772;37.658;2023-12-20T02:54:46;4.90;;;2.20;;
76540;SDS011;65385;55.772;37.658;2023-12-20T02:55:46;3.83;;;2.20;;
76540;SDS011;65385;55.772;37.658;2023-12-20T02:56:47;2.42;;;1.92;;
76540;SDS011;65385;55.772;37.658;2023-12-20T02:57:48;2.92;;;2.28;;
76540;SDS011;65385;55.772;37.658;2023-12-20T02:58:48;3.38;;;2.20;;
76540;SDS011;65385;55.772;37.658;2023-12-20T02:59:49;3.30;;;2.53;;
76540;SDS011;65385;55.772;37.658;2023-12-20T03:00:50;3.78;;;2.53;;
76540;SDS011;65385;55.772;37.658;2023-12-20T03:01:51;3.05;;;2.58;;
76540;SDS011;65385;55.772;37.658;2023-12-20T03:02:51;3.40;;;2.45;;
76540;SDS011;65385;55.772;37.658;2023-12-20T03:03:52;4.65;;;2.47;;
76540;SDS011;65385;55.772;37.658;2023-12-20T03:04:53;2.42;;;2.22;;
76540;SDS011;65385;55.772;37.658;2023-12-20T03:05:54;2.72;;;2.42;;
76540;SDS011;65385;55.772;37.658;2023-12-20T03:06:55;4.80;;;2.72;;
76540;SDS011;65385;55.772;37.658;2023-12-20T03:07:56;5.50;;;2.45;;
76540;SDS011;65385;55.772;37.658;2023-12-20T03:08:56;3.33;;;2.65;;
76540;SDS011;65385;55.772;37.658;2023-12-20T03:09:57;3.92;;;2.45;;
76540;SDS011;65385;55.772;37.658;2023-12-20T03:10:59;6.07;;;2.65;;
76540;SDS011;65385;55.772;37.658;2023-12-20T03:12:00;3.50;;;2.65;;
76540;SDS011;65385;55.772;37.658;2023-12-20T03:13:00;4.40;;;2.40;;
76540;SDS011;65385;55.772;37.658;2023-12-20T03:14:01;4.07;;;2.30;;
76540;SDS011;65385;55.772;37.658;2023-12-20T03:15:01;3.53;;;2.72;;
76540;SDS011;65385;55.772;37.658;2023-12-20T03:16:11;3.63;;;2.33;;
76540;SDS011;65385;55.772;37.658;2023-12-20T03:17:12;4.32;;;2.75;;
76540;SDS011;65385;55.772;37.658;2023-12-20T03:18:13;3.53;;;2.30;;
76540;SDS011;65385;55.772;37.658;2023-12-20T03:19:14;3.13;;;2.80;;
76540;SDS011;65385;55.772;37.658;2023-12-20T03:20:15;3.05;;;2.75;;
76540;SDS011;65385;55.772;37.658;2023-12-20T03:21:16;3.55;;;2.70;;
76540;SDS011;65385;55.772;37.658;2023-12-20T03:22:16;3.88;;;2.60;;
76540;SDS011;65385;55.772;37.658;2023-12-20T03:23:17;5.15;;;3.08;;
76540;SDS011;65385;55.772;37.658;2023-12-20T03:24:17;4.30;;;2.55;;
76540;SDS011;65385;55.772;37.658;2023-12-20T03:25:18;4.07;;;2.72;;
76540;SDS011;65385;55.772;37.658;2023-12-20T03:26:19;5.38;;;2.95;;
76540;SDS011;65385;55.772;37.658;2023-12-20T03:27:20;2.50;;;2.30;;
76540;SDS011;65385;55.772;37.658;2023-12-20T03:28:20;3.83;;;2.90;;
76540;SDS011;65385;55.772;37.658;2023-12-20T03:29:21;3.15;;;2.75;;
76540;SDS011;65385;55.772;37.658;2023-12-20T03:30:21;5.35;;;2.88;;
76540;SDS011;65385;55.772;37.658;2023-12-20T03:31:22;6.13;;;2.70;;
76540;SDS011;65385;55.772;37.658;2023-12-20T03:32:23;6.07;;;3.53;;
76540;SDS011;65385;55.772;37.658;2023-12-20T03:33:23;5.68;;;3.17;;
76540;SDS011;65385;55.772;37.658;2023-12-20T03:34:24;5.15;;;2.97;;
76540;SDS011;65385;55.772;37.658;2023-12-20T03:35:24;2.70;;;2.10;;
76540;SDS011;65385;55.772;37.658;2023-12-20T03:36:25;2.78;;;2.47;;
76540;SDS011;65385;55.772;37.658;2023-12-20T03:37:25;3.85;;;2.75;;
76540;SDS011;65385;55.772;37.658;2023-12-20T03:38:26;3.10;;;2.78;;
76540;SDS011;65385;55.772;37.658;2023-12-20T03:39:27;5.03;;;3.08;;
76540;SDS011;65385;55.772;37.658;2023-12-20T03:40:27;3.55;;;2.80;;
76540;SDS011;65385;55.772;37.658;2023-12-20T03:41:28;4.03;;;3.00;;
76540;SDS011;65385;55.772;37.658;2023-12-20T03:42:29;3.03;;;2.60;;
76540;SDS011;65385;55.772;37.658;2023-12-20T03:43:29;3.85;;;2.90;;
76540;SDS011;65385;55.772;37.658;2023-12-20T03:44:30;3.53;;;2.97;;
76540;SDS011;65385;55.772;37.658;2023-12-20T03:45:30;7.40;;;3.00;;
76540;SDS011;65385;55.772;37.658;2023-12-20T03:46:31;4.43;;;3.10;;
76540;SDS011;65385;55.772;37.658;2023-12-20T03:47:32;5.57;;;2.83;;
76540;SDS011;65385;55.772;37.658;2023-12-20T03:48:32;4.82;;;3.03;;
76540;SDS011;65385;55.772;37.658;2023-12-20T03:49:33;4.07;;;2.88;;
76540;SDS011;65385;55.772;37.658;2023-12-20T03:50:34;5.50;;;2.72;;
76540;SDS011;65385;55.772;37.658;2023-12-20T03:51:35;4.10;;;3.20;;
76540;SDS011;65385;55.772;37.658;2023-12-20T03:52:36;5.38;;;3.30;;
76540;SDS011;65385;55.772;37.658;2023-12-20T03:53:37;4.65;;;3.25;;
76540;SDS011;65385;55.772;37.658;2023-12-20T03:54:38;3.53;;;2.53;;
76540;SDS011;65385;55.772;37.658;2023-12-20T03:55:38;2.80;;;2.53;;
76540;SDS011;65385;55.772;37.658;2023-12-20T03:56:39;3.63;;;2.70;;
76540;SDS011;65385;55.772;37.658;2023-12-20T03:57:40;4.68;;;3.08;;
76540;SDS011;65385;55.772;37.658;2023-12-20T03:58:40;4.97;;;3.10;;
76540;SDS011;65385;55.772;37.658;2023-12-20T03:59:41;6.45;;;3.42;;
76540;SDS011;65385;55.772;37.658;2023-12-20T04:00:41;5.15;;;3.25;;
76540;SDS011;65385;55.772;37.658;2023-12-20T04:01:45;6.40;;;3.38;;
76540;SDS011;65385;55.772;37.658;2023-12-20T04:02:45;6.28;;;3.47;;
76540;SDS011;65385;55.772;37.658;2023-12-20T04:03:46;5.70;;;3.22;;
76540;SDS011;65385;55.772;37.658;2023-12-20T04:04:46;7.05;;;3.42;;
76540;SDS011;65385;55.772;37.658;2023-12-20T04:05:47;5.85;;;3.45;;
76540;SDS011;65385;55.772;37.658;2023-12-20T04:06:48;5.03;;;3.55;;
76540;SDS011;65385;55.772;37.658;2023-12-20T04:07:48;6.03;;;3.33;;
76540;SDS011;65385;55.772;37.658;2023-12-20T04:08:50;5.93;;;4.00;;
76540;SDS011;65385;55.772;37.658;2023-12-20T04:09:51;4.80;;;3.63;;
76540;SDS011;65385;55.772;37.658;2023-12-20T04:10:51;6.75;;;4.13;;
76540;SDS011;65385;55.772;37.658;2023-12-20T04:11:52;8.80;;;4.32;;
76540;SDS011;65385;55.772;37.658;2023-12-20T04:12:53;5.35;;;3.85;;
76540;SDS011;65385;55.772;37.658;2023-12-20T04:13:55;7.90;;;3.83;;
76540;SDS011;65385;55.772;37.658;2023-12-20T04:14:56;7.72;;;3.92;;
76540;SDS011;65385;55.772;37.658;2023-12-20T04:15:57;7.72;;;3.80;;
76540;SDS011;65385;55.772;37.658;2023-12-20T04:16:58;6.78;;;3.85;;
76540;SDS011;65385;55.772;37.658;2023-12-20T04:17:59;6.10;;;4.15;;
76540;SDS011;65385;55.772;37.658;2023-12-20T04:18:59;9.55;;;4.93;;
76540;SDS011;65385;55.772;37.658;2023-12-20T04:20:00;7.35;;;3.78;;
76540;SDS011;65385;55.772;37.658;2023-12-20T04:21:01;9.98;;;4.90;;
76540;SDS011;65385;55.772;37.658;2023-12-20T04:22:01;18.23;;;4.93;;
76540;SDS011;65385;55.772;37.658;2023-12-20T04:23:02;10.13;;;4.63;;
76540;SDS011;65385;55.772;37.658;2023-12-20T04:24:03;6.55;;;4.57;;
76540;SDS011;65385;55.772;37.658;2023-12-20T04:25:03;6.88;;;4.05;;
76540;SDS011;65385;55.772;37.658;2023-12-20T04:26:05;9.40;;;4.50;;
76540;SDS011;65385;55.772;37.658;2023-12-20T04:27:06;11.75;;;5.13;;
76540;SDS011;65385;55.772;37.658;2023-12-20T04:28:07;9.73;;;5.13;;
76540;SDS011;65385;55.772;37.658;2023-12-20T04:29:07;10.50;;;5.10;;
76540;SDS011;65385;55.772;37.658;2023-12-20T04:30:08;9.02;;;5.07;;
76540;SDS011;65385;55.772;37.658;2023-12-20T04:31:09;8.35;;;5.28;;
76540;SDS011;65385;55.772;37.658;2023-12-20T04:32:10;5.57;;;3.63;;
76540;SDS011;65385;55.772;37.658;2023-12-20T04:33:10;9.88;;;4.85;;
76540;SDS011;65385;55.772;37.658;2023-12-20T04:34:11;8.60;;;5.50;;
76540;SDS011;65385;55.772;37.658;2023-12-20T04:35:11;15.45;;;6.03;;
76540;SDS011;65385;55.772;37.658;2023-12-20T04:36:12;10.15;;;5.00;;
76540;SDS011;65385;55.772;37.658;2023-12-20T04:37:13;12.48;;;5.88;;
76540;SDS011;65385;55.772;37.658;2023-12-20T04:38:14;6.40;;;4.05;;
76540;SDS011;65385;55.772;37.658;2023-12-20T04:39:14;9.73;;;4.72;;
76540;SDS011;65385;55.772;37.658;2023-12-20T04:40:15;8.93;;;5.22;;
76540;SDS011;65385;55.772;37.658;2023-12-20T04:41:15;9.13;;;4.68;;
76540;SDS011;65385;55.772;37.658;2023-12-20T04:42:19;7.60;;;4.45;;
76540;SDS011;65385;55.772;37.658;2023-12-20T04:43:19;10.68;;;5.38;;
76540;SDS011;65385;55.772;37.658;2023-12-20T04:44:20;10.00;;;4.80;;
76540;SDS011;65385;55.772;37.658;2023-12-20T04:45:20;9.65;;;4.40;;
76540;SDS011;65385;55.772;37.658;2023-12-20T04:46:21;6.20;;;3.72;;
76540;SDS011;65385;55.772;37.658;2023-12-20T04:47:22;7.07;;;4.22;;
76540;SDS011;65385;55.772;37.658;2023-12-20T04:48:22;8.77;;;4.45;;
76540;SDS011;65385;55.772;37.658;2023-12-20T04:49:23;9.18;;;4.53;;
76540;SDS011;65385;55.772;37.658;2023-12-20T04:50:24;6.00;;;3.63;;
76540;SDS011;65385;55.772;37.658;2023-12-20T04:51:24;5.70;;;3.50;;
76540;SDS011;65385;55.772;37.658;2023-12-20T04:52:25;7.32;;;3.50;;
76540;SDS011;65385;55.772;37.658;2023-12-20T04:53:26;5.85;;;3.15;;
76540;SDS011;65385;55.772;37.658;2023-12-20T04:54:27;8.45;;;3.85;;
76540;SDS011;65385;55.772;37.658;2023-12-20T04:55:28;6.75;;;3.97;;
76540;SDS011;65385;55.772;37.658;2023-12-20T04:56:29;7.13;;;3.92;;
76540;SDS011;65385;55.772;37.658;2023-12-20T04:57:29;5.85;;;3.60;;
76540;SDS011;65385;55.772;37.658;2023-12-20T04:58:30;8.10;;;3.65;;
76540;SDS011;65385;55.772;37.658;2023-12-20T04:59:31;9.30;;;3.88;;
76540;SDS011;65385;55.772;37.658;2023-12-20T05:00:31;8.00;;;4.25;;
76540;SDS011;65385;55.772;37.658;2023-12-20T05:01:32;9.68;;;4.57;;
76540;SDS011;65385;55.772;37.658;2023-12-20T05:02:33;8.27;;;4.57;;
76540;SDS011;65385;55.772;37.658;2023-12-20T05:03:33;7.50;;;4.47;;
76540;SDS011;65385;55.772;37.658;2023-12-20T05:04:34;8.82;;;5.65;;
76540;SDS011;65385;55.772;37.658;2023-12-20T05:05:35;8.55;;;4.53;;
76540;SDS011;65385;55.772;37.658;2023-12-20T05:06:36;7.68;;;3.90;;
76540;SDS011;65385;55.772;37.658;2023-12-20T05:07:37;7.60;;;3.67;;
76540;SDS011;65385;55.772;37.658;2023-12-20T05:08:37;7.63;;;4.05;;
76540;SDS011;65385;55.772;37.658;2023-12-20T05:09:38;6.95;;;3.88;;
76540;SDS011;65385;55.772;37.658;2023-12-20T05:10:39;6.50;;;3.70;;
76540;SDS011;65385;55.772;37.658;2023-12-20T05:11:40;8.75;;;4.45;;
76540;SDS011;65385;55.772;37.658;2023-12-20T05:12:41;7.50;;;4.38;;
76540;SDS011;65385;55.772;37.658;2023-12-20T05:13:41;8.60;;;3.80;;
76540;SDS011;65385;55.772;37.658;2023-12-20T05:14:42;7.50;;;4.22;;
76540;SDS011;65385;55.772;37.658;2023-12-20T05:15:43;8.38;;;3.83;;
76540;SDS011;65385;55.772;37.658;2023-12-20T05:16:44;9.27;;;3.58;;
76540;SDS011;65385;55.772;37.658;2023-12-20T05:17:44;6.07;;;3.40;;
76540;SDS011;65385;55.772;37.658;2023-12-20T05:18:45;6.57;;;3.78;;
76540;SDS011;65385;55.772;37.658;2023-12-20T05:19:47;5.47;;;3.05;;
76540;SDS011;65385;55.772;37.658;2023-12-20T05:20:47;6.85;;;3.20;;
76540;SDS011;65385;55.772;37.658;2023-12-20T05:21:48;6.97;;;3.20;;
76540;SDS011;65385;55.772;37.658;2023-12-20T05:22:49;6.55;;;3.10;;
76540;SDS011;65385;55.772;37.658;2023-12-20T05:23:50;5.25;;;2.88;;
76540;SDS011;65385;55.772;37.658;2023-12-20T05:24:51;8.55;;;3.10;;
76540;SDS011;65385;55.772;37.658;2023-12-20T05:25:51;6.22;;;2.75;;
76540;SDS011;65385;55.772;37.658;2023-12-20T05:26:52;5.80;;;2.95;;
76540;SDS011;65385;55.772;37.658;2023-12-20T05:27:53;6.22;;;2.92;;
76540;SDS011;65385;55.772;37.658;2023-12-20T05:28:53;6.43;;;3.58;;
76540;SDS011;65385;55.772;37.658;2023-12-20T05:29:54;5.82;;;3.15;;
76540;SDS011;65385;55.772;37.658;2023-12-20T05:30:57;6.90;;;3.45;;
76540;SDS011;65385;55.772;37.658;2023-12-20T05:31:58;7.80;;;3.42;;
76540;SDS011;65385;55.772;37.658;2023-12-20T05:32:59;6.50;;;3.80;;
76540;SDS011;65385;55.772;37.658;2023-12-20T05:33:59;6.63;;;3.40;;
76540;SDS011;65385;55.772;37.658;2023-12-20T05:35:00;5.30;;;3.25;;
76540;SDS011;65385;55.772;37.658;2023-12-20T05:36:01;8.95;;;3.45;;
76540;SDS011;65385;55.772;37.658;2023-12-20T05:37:01;5.20;;;2.95;;
76540;SDS011;65385;55.772;37.658;2023-12-20T05:38:02;6.78;;;3.83;;
76540;SDS011;65385;55.772;37.658;2023-12-20T05:39:03;6.05;;;3.40;;
76540;SDS011;65385;55.772;37.658;2023-12-20T05:40:04;10.15;;;4.22;;
76540;SDS011;65385;55.772;37.658;2023-12-20T05:41:05;8.30;;;3.70;;
76540;SDS011;65385;55.772;37.658;2023-12-20T05:42:06;9.07;;;3.88;;
76540;SDS011;65385;55.772;37.658;2023-12-20T05:43:07;5.75;;;3.38;;
76540;SDS011;65385;55.772;37.658;2023-12-20T05:44:07;7.93;;;4.55;;
76540;SDS011;65385;55.772;37.658;2023-12-20T05:45:08;11.98;;;3.95;;
76540;SDS011;65385;55.772;37.658;2023-12-20T05:46:10;6.88;;;3.70;;
76540;SDS011;65385;55.772;37.658;2023-12-20T05:47:12;8.43;;;4.00;;
76540;SDS011;65385;55.772;37.658;2023-12-20T05:48:13;7.90;;;4.13;;
76540;SDS011;65385;55.772;37.658;2023-12-20T05:49:13;7.20;;;4.32;;
76540;SDS011;65385;55.772;37.658;2023-12-20T05:50:14;7.45;;;4.05;;
76540;SDS011;65385;55.772;37.658;2023-12-20T05:51:15;7.30;;;4.45;;
76540;SDS011;65385;55.772;37.658;2023-12-20T05:52:16;7.53;;;3.67;;
76540;SDS011;65385;55.772;37.658;2023-12-20T05:53:16;9.10;;;4.00;;
76540;SDS011;65385;55.772;37.658;2023-12-20T05:54:17;9.82;;;4.45;;
76540;SDS011;65385;55.772;37.658;2023-12-20T05:55:18;8.27;;;3.80;;
76540;SDS011;65385;55.772;37.658;2023-12-20T05:56:18;11.52;;;5.00;;
76540;SDS011;65385;55.772;37.658;2023-12-20T05:57:19;7.70;;;4.22;;
76540;SDS011;65385;55.772;37.658;2023-12-20T05:58:19;7.32;;;4.32;;
76540;SDS011;65385;55.772;37.658;2023-12-20T05:59:20;8.43;;;4.28;;
76540;SDS011;65385;55.772;37.658;2023-12-20T06:00:20;10.02;;;5.20;;
76540;SDS011;65385;55.772;37.658;2023-12-20T06:01:21;9.15;;;5.00;;
76540;SDS011;65385;55.772;37.658;2023-12-20T06:02:22;9.40;;;3.80;;